KEEO

Meeker Coulter Field Airport

Meeker, Colorado, USA
METAR KEEO 260353Z AUTO 07003KT 10SM CLR 12/M01 A3006 RMK AO2 SLP106 T01171006
Observed Flight Rules
May-26 @ 03:53 UTC (30 minutes ago) Visual Flight Rules
Wind Visibility Clouds
70° at 3 knots 10 miles
  • Clear skies
Temperatures Readings
Current 12°C / 54°F
Dewpoint -1°C / 30°F
Humidity 41%
Altimeter 30.06" Hg
Pressure 1010.6 hPa
Elevation 1930
METAR KEEO 260353Z AUTO 07003KT 10SM CLR 12/M01 A3006 RMK AO2 SLP106 T01171006
Observed Flight Rules
May-26 @ 03:53 UTC
(30 minutes ago)
VFR
Wind Visibility
70° at 3 knots 10 miles
Clouds
  • Clear skies
Temperature Dewpoint
12°C / 54°F -1°C / 30°F
Humidity Altimeter Pressure
41% 30.06" Hg 1010.6 hPa